sensor_id;sensor_type;location;lat;lon;timestamp;P1;durP1;ratioP1;P2;durP2;ratioP2
69126;SDS011;56688;50.234;19.292;2023-04-01T00:01:04;6.30;;;3.70;;
69126;SDS011;56688;50.234;19.292;2023-04-01T00:03:32;8.80;;;5.60;;
69126;SDS011;56688;50.234;19.292;2023-04-01T00:06:00;6.10;;;4.80;;
69126;SDS011;56688;50.234;19.292;2023-04-01T00:08:28;7.00;;;4.80;;
69126;SDS011;56688;50.234;19.292;2023-04-01T00:10:55;8.70;;;5.20;;
69126;SDS011;56688;50.234;19.292;2023-04-01T00:13:24;5.30;;;4.30;;
69126;SDS011;56688;50.234;19.292;2023-04-01T00:15:54;6.20;;;3.80;;
69126;SDS011;56688;50.234;19.292;2023-04-01T00:18:22;6.20;;;3.60;;
69126;SDS011;56688;50.234;19.292;2023-04-01T00:20:50;6.80;;;3.90;;
69126;SDS011;56688;50.234;19.292;2023-04-01T00:23:18;5.80;;;4.00;;
69126;SDS011;56688;50.234;19.292;2023-04-01T00:25:46;8.30;;;3.40;;
69126;SDS011;56688;50.234;19.292;2023-04-01T00:28:16;8.30;;;3.70;;
69126;SDS011;56688;50.234;19.292;2023-04-01T00:30:44;6.10;;;3.00;;
69126;SDS011;56688;50.234;19.292;2023-04-01T00:33:12;7.80;;;3.30;;
69126;SDS011;56688;50.234;19.292;2023-04-01T00:35:39;7.10;;;2.70;;
69126;SDS011;56688;50.234;19.292;2023-04-01T00:38:07;9.20;;;2.80;;
69126;SDS011;56688;50.234;19.292;2023-04-01T00:40:35;5.90;;;2.50;;
69126;SDS011;56688;50.234;19.292;2023-04-01T00:43:09;5.70;;;2.20;;
69126;SDS011;56688;50.234;19.292;2023-04-01T00:45:44;4.00;;;2.40;;
69126;SDS011;56688;50.234;19.292;2023-04-01T00:48:15;4.60;;;2.70;;
69126;SDS011;56688;50.234;19.292;2023-04-01T00:50:46;7.40;;;2.70;;
69126;SDS011;56688;50.234;19.292;2023-04-01T00:53:18;5.50;;;3.30;;
69126;SDS011;56688;50.234;19.292;2023-04-01T00:55:50;6.50;;;3.50;;
69126;SDS011;56688;50.234;19.292;2023-04-01T00:58:25;9.70;;;4.80;;
69126;SDS011;56688;50.234;19.292;2023-04-01T01:00:56;7.90;;;4.90;;
69126;SDS011;56688;50.234;19.292;2023-04-01T01:03:25;7.60;;;3.30;;
69126;SDS011;56688;50.234;19.292;2023-04-01T01:06:03;9.90;;;3.70;;
69126;SDS011;56688;50.234;19.292;2023-04-01T01:11:19;7.30;;;3.80;;
69126;SDS011;56688;50.234;19.292;2023-04-01T01:14:06;9.10;;;4.50;;
69126;SDS011;56688;50.234;19.292;2023-04-01T01:16:53;7.50;;;5.40;;
69126;SDS011;56688;50.234;19.292;2023-04-01T01:21:56;6.90;;;6.10;;
69126;SDS011;56688;50.234;19.292;2023-04-01T01:27:32;4.80;;;2.90;;
69126;SDS011;56688;50.234;19.292;2023-04-01T01:30:10;5.60;;;2.80;;
69126;SDS011;56688;50.234;19.292;2023-04-01T01:35:40;4.40;;;2.70;;
69126;SDS011;56688;50.234;19.292;2023-04-01T01:38:16;5.60;;;3.40;;
69126;SDS011;56688;50.234;19.292;2023-04-01T01:40:52;9.30;;;3.00;;
69126;SDS011;56688;50.234;19.292;2023-04-01T01:43:25;7.00;;;3.50;;
69126;SDS011;56688;50.234;19.292;2023-04-01T01:45:57;6.60;;;3.50;;
69126;SDS011;56688;50.234;19.292;2023-04-01T01:48:27;9.50;;;3.50;;
69126;SDS011;56688;50.234;19.292;2023-04-01T01:50:57;7.70;;;3.30;;
69126;SDS011;56688;50.234;19.292;2023-04-01T01:53:24;5.80;;;3.30;;
69126;SDS011;56688;50.234;19.292;2023-04-01T01:55:51;7.70;;;3.50;;
69126;SDS011;56688;50.234;19.292;2023-04-01T02:00:48;6.10;;;3.90;;
69126;SDS011;56688;50.234;19.292;2023-04-01T02:03:19;9.10;;;4.10;;
69126;SDS011;56688;50.234;19.292;2023-04-01T02:05:50;7.00;;;3.70;;
69126;SDS011;56688;50.234;19.292;2023-04-01T02:08:22;8.60;;;3.80;;
69126;SDS011;56688;50.234;19.292;2023-04-01T02:10:55;8.40;;;3.40;;
69126;SDS011;56688;50.234;19.292;2023-04-01T02:16:18;7.60;;;3.40;;
69126;SDS011;56688;50.234;19.292;2023-04-01T02:18:51;7.20;;;3.40;;
69126;SDS011;56688;50.234;19.292;2023-04-01T02:21:22;5.90;;;3.30;;
69126;SDS011;56688;50.234;19.292;2023-04-01T02:23:53;6.70;;;2.90;;
69126;SDS011;56688;50.234;19.292;2023-04-01T02:26:21;5.10;;;3.20;;
69126;SDS011;56688;50.234;19.292;2023-04-01T02:28:52;8.00;;;4.50;;
69126;SDS011;56688;50.234;19.292;2023-04-01T02:31:20;6.70;;;3.70;;
69126;SDS011;56688;50.234;19.292;2023-04-01T02:33:48;6.10;;;3.20;;
69126;SDS011;56688;50.234;19.292;2023-04-01T02:36:16;5.40;;;3.50;;
69126;SDS011;56688;50.234;19.292;2023-04-01T02:38:44;8.90;;;4.00;;
69126;SDS011;56688;50.234;19.292;2023-04-01T02:41:13;8.90;;;4.80;;
69126;SDS011;56688;50.234;19.292;2023-04-01T02:43:40;7.80;;;4.70;;
69126;SDS011;56688;50.234;19.292;2023-04-01T02:46:07;9.20;;;4.40;;
69126;SDS011;56688;50.234;19.292;2023-04-01T02:48:34;8.70;;;4.20;;
69126;SDS011;56688;50.234;19.292;2023-04-01T02:51:01;8.40;;;3.90;;
69126;SDS011;56688;50.234;19.292;2023-04-01T02:53:28;7.30;;;3.90;;
69126;SDS011;56688;50.234;19.292;2023-04-01T02:55:55;6.60;;;3.30;;
69126;SDS011;56688;50.234;19.292;2023-04-01T02:58:22;5.20;;;3.10;;
69126;SDS011;56688;50.234;19.292;2023-04-01T03:00:49;6.30;;;3.00;;
69126;SDS011;56688;50.234;19.292;2023-04-01T03:03:16;7.40;;;2.80;;
69126;SDS011;56688;50.234;19.292;2023-04-01T03:05:43;6.10;;;2.30;;
69126;SDS011;56688;50.234;19.292;2023-04-01T03:08:09;6.20;;;2.60;;
69126;SDS011;56688;50.234;19.292;2023-04-01T03:10:36;5.30;;;2.70;;
69126;SDS011;56688;50.234;19.292;2023-04-01T03:13:04;4.20;;;2.20;;
69126;SDS011;56688;50.234;19.292;2023-04-01T03:15:30;3.70;;;2.50;;
69126;SDS011;56688;50.234;19.292;2023-04-01T03:17:58;5.80;;;2.70;;
69126;SDS011;56688;50.234;19.292;2023-04-01T03:20:25;6.50;;;2.60;;
69126;SDS011;56688;50.234;19.292;2023-04-01T03:22:52;4.70;;;1.90;;
69126;SDS011;56688;50.234;19.292;2023-04-01T03:25:18;6.50;;;3.00;;
69126;SDS011;56688;50.234;19.292;2023-04-01T03:27:46;4.70;;;2.30;;
69126;SDS011;56688;50.234;19.292;2023-04-01T03:30:13;6.60;;;2.70;;
69126;SDS011;56688;50.234;19.292;2023-04-01T03:32:45;6.00;;;2.40;;
69126;SDS011;56688;50.234;19.292;2023-04-01T03:35:11;8.00;;;2.70;;
69126;SDS011;56688;50.234;19.292;2023-04-01T03:37:39;4.00;;;2.40;;
69126;SDS011;56688;50.234;19.292;2023-04-01T03:40:06;6.90;;;2.90;;
69126;SDS011;56688;50.234;19.292;2023-04-01T03:42:33;6.00;;;2.70;;
69126;SDS011;56688;50.234;19.292;2023-04-01T03:45:00;5.90;;;2.80;;
69126;SDS011;56688;50.234;19.292;2023-04-01T03:47:28;6.60;;;2.50;;
69126;SDS011;56688;50.234;19.292;2023-04-01T03:49:55;6.50;;;2.60;;
69126;SDS011;56688;50.234;19.292;2023-04-01T03:52:22;5.10;;;3.10;;
69126;SDS011;56688;50.234;19.292;2023-04-01T03:54:49;4.90;;;2.60;;
69126;SDS011;56688;50.234;19.292;2023-04-01T03:57:16;6.20;;;3.40;;
69126;SDS011;56688;50.234;19.292;2023-04-01T03:59:43;6.10;;;2.90;;
69126;SDS011;56688;50.234;19.292;2023-04-01T04:02:10;6.20;;;3.20;;
69126;SDS011;56688;50.234;19.292;2023-04-01T04:04:37;6.50;;;3.00;;
69126;SDS011;56688;50.234;19.292;2023-04-01T04:07:04;8.10;;;3.70;;
69126;SDS011;56688;50.234;19.292;2023-04-01T04:09:42;7.80;;;3.90;;
69126;SDS011;56688;50.234;19.292;2023-04-01T04:12:09;7.20;;;3.80;;
69126;SDS011;56688;50.234;19.292;2023-04-01T04:14:36;12.60;;;4.30;;
69126;SDS011;56688;50.234;19.292;2023-04-01T04:17:03;7.90;;;4.50;;
69126;SDS011;56688;50.234;19.292;2023-04-01T04:19:32;9.80;;;4.90;;
69126;SDS011;56688;50.234;19.292;2023-04-01T04:22:00;11.10;;;4.70;;
69126;SDS011;56688;50.234;19.292;2023-04-01T04:24:28;7.10;;;4.70;;
69126;SDS011;56688;50.234;19.292;2023-04-01T04:27:00;7.80;;;5.30;;
69126;SDS011;56688;50.234;19.292;2023-04-01T04:29:27;8.20;;;5.50;;
69126;SDS011;56688;50.234;19.292;2023-04-01T04:31:55;7.00;;;4.50;;
69126;SDS011;56688;50.234;19.292;2023-04-01T04:34:22;8.40;;;5.20;;
69126;SDS011;56688;50.234;19.292;2023-04-01T04:36:49;7.00;;;4.40;;
69126;SDS011;56688;50.234;19.292;2023-04-01T04:39:16;8.40;;;3.90;;
69126;SDS011;56688;50.234;19.292;2023-04-01T04:41:44;8.60;;;4.60;;
69126;SDS011;56688;50.234;19.292;2023-04-01T04:44:12;9.50;;;4.30;;
69126;SDS011;56688;50.234;19.292;2023-04-01T04:46:39;9.40;;;4.20;;
69126;SDS011;56688;50.234;19.292;2023-04-01T04:49:10;8.00;;;3.90;;
69126;SDS011;56688;50.234;19.292;2023-04-01T04:51:37;8.40;;;4.20;;
69126;SDS011;56688;50.234;19.292;2023-04-01T04:54:05;7.20;;;3.80;;
69126;SDS011;56688;50.234;19.292;2023-04-01T04:56:53;10.00;;;5.20;;
69126;SDS011;56688;50.234;19.292;2023-04-01T04:59:21;10.40;;;5.10;;
69126;SDS011;56688;50.234;19.292;2023-04-01T05:04:22;9.40;;;4.90;;
69126;SDS011;56688;50.234;19.292;2023-04-01T05:06:49;10.40;;;5.30;;
69126;SDS011;56688;50.234;19.292;2023-04-01T05:09:16;10.10;;;5.00;;
69126;SDS011;56688;50.234;19.292;2023-04-01T05:11:43;9.50;;;4.90;;
69126;SDS011;56688;50.234;19.292;2023-04-01T05:14:12;10.90;;;5.70;;
69126;SDS011;56688;50.234;19.292;2023-04-01T05:16:41;13.60;;;6.30;;
69126;SDS011;56688;50.234;19.292;2023-04-01T05:19:08;10.50;;;5.30;;
69126;SDS011;56688;50.234;19.292;2023-04-01T05:21:35;11.80;;;5.20;;
69126;SDS011;56688;50.234;19.292;2023-04-01T05:24:02;15.60;;;5.80;;
69126;SDS011;56688;50.234;19.292;2023-04-01T05:26:30;9.80;;;4.80;;
69126;SDS011;56688;50.234;19.292;2023-04-01T05:28:57;9.40;;;5.20;;
69126;SDS011;56688;50.234;19.292;2023-04-01T05:31:23;12.60;;;5.20;;
69126;SDS011;56688;50.234;19.292;2023-04-01T05:33:51;12.40;;;5.70;;
69126;SDS011;56688;50.234;19.292;2023-04-01T05:36:18;14.80;;;5.50;;
69126;SDS011;56688;50.234;19.292;2023-04-01T05:38:45;11.20;;;4.90;;
69126;SDS011;56688;50.234;19.292;2023-04-01T05:41:13;11.30;;;4.60;;
69126;SDS011;56688;50.234;19.292;2023-04-01T05:43:43;11.70;;;4.50;;
69126;SDS011;56688;50.234;19.292;2023-04-01T05:46:26;7.90;;;3.60;;
69126;SDS011;56688;50.234;19.292;2023-04-01T05:48:58;6.50;;;3.60;;
69126;SDS011;56688;50.234;19.292;2023-04-01T05:51:25;8.50;;;3.70;;
69126;SDS011;56688;50.234;19.292;2023-04-01T05:53:52;9.40;;;4.50;;
69126;SDS011;56688;50.234;19.292;2023-04-01T05:56:19;8.00;;;4.10;;
69126;SDS011;56688;50.234;19.292;2023-04-01T05:58:50;6.80;;;3.30;;
69126;SDS011;56688;50.234;19.292;2023-04-01T06:01:18;6.70;;;3.30;;
69126;SDS011;56688;50.234;19.292;2023-04-01T06:03:45;7.80;;;3.20;;
69126;SDS011;56688;50.234;19.292;2023-04-01T06:06:14;7.70;;;3.10;;
69126;SDS011;56688;50.234;19.292;2023-04-01T06:08:46;6.80;;;3.20;;
69126;SDS011;56688;50.234;19.292;2023-04-01T06:11:50;7.70;;;2.90;;
69126;SDS011;56688;50.234;19.292;2023-04-01T06:25:14;9.20;;;3.90;;
69126;SDS011;56688;50.234;19.292;2023-04-01T06:38:34;8.70;;;3.50;;
69126;SDS011;56688;50.234;19.292;2023-04-01T06:44:13;9.40;;;3.60;;
69126;SDS011;56688;50.234;19.292;2023-04-01T06:50:28;7.10;;;3.20;;
69126;SDS011;56688;50.234;19.292;2023-04-01T06:53:21;7.60;;;3.30;;
69126;SDS011;56688;50.234;19.292;2023-04-01T06:56:06;7.50;;;4.30;;
69126;SDS011;56688;50.234;19.292;2023-04-01T06:58:48;9.60;;;4.40;;
69126;SDS011;56688;50.234;19.292;2023-04-01T07:01:21;9.60;;;4.80;;
69126;SDS011;56688;50.234;19.292;2023-04-01T07:09:10;9.80;;;4.70;;
69126;SDS011;56688;50.234;19.292;2023-04-01T07:12:02;11.40;;;5.00;;
69126;SDS011;56688;50.234;19.292;2023-04-01T07:15:41;10.60;;;4.70;;
69126;SDS011;56688;50.234;19.292;2023-04-01T07:17:54;6.70;;;3.30;;
69126;SDS011;56688;50.234;19.292;2023-04-01T07:20:26;9.50;;;3.80;;
69126;SDS011;56688;50.234;19.292;2023-04-01T07:23:06;10.20;;;3.60;;
69126;SDS011;56688;50.234;19.292;2023-04-01T07:25:55;6.10;;;3.10;;
69126;SDS011;56688;50.234;19.292;2023-04-01T07:28:30;14.50;;;4.30;;
69126;SDS011;56688;50.234;19.292;2023-04-01T07:42:09;9.20;;;3.40;;
69126;SDS011;56688;50.234;19.292;2023-04-01T07:44:59;6.90;;;4.10;;
69126;SDS011;56688;50.234;19.292;2023-04-01T07:47:49;7.40;;;2.90;;
69126;SDS011;56688;50.234;19.292;2023-04-01T07:50:31;4.70;;;2.40;;
69126;SDS011;56688;50.234;19.292;2023-04-01T07:53:08;5.40;;;2.10;;
69126;SDS011;56688;50.234;19.292;2023-04-01T07:55:41;4.80;;;1.90;;
69126;SDS011;56688;50.234;19.292;2023-04-01T08:08:41;4.90;;;1.80;;
69126;SDS011;56688;50.234;19.292;2023-04-01T08:14:43;3.60;;;2.30;;
69126;SDS011;56688;50.234;19.292;2023-04-01T08:22:58;6.70;;;2.60;;
69126;SDS011;56688;50.234;19.292;2023-04-01T08:25:36;3.80;;;2.50;;
69126;SDS011;56688;50.234;19.292;2023-04-01T08:28:12;5.20;;;2.40;;
69126;SDS011;56688;50.234;19.292;2023-04-01T08:36:05;5.40;;;3.00;;
69126;SDS011;56688;50.234;19.292;2023-04-01T08:38:43;5.60;;;3.00;;
69126;SDS011;56688;50.234;19.292;2023-04-01T08:41:21;4.40;;;2.50;;
69126;SDS011;56688;50.234;19.292;2023-04-01T08:44:18;4.50;;;2.40;;
69126;SDS011;56688;50.234;19.292;2023-04-01T08:46:56;2.80;;;2.20;;
69126;SDS011;56688;50.234;19.292;2023-04-01T08:49:48;5.90;;;2.70;;
69126;SDS011;56688;50.234;19.292;2023-04-01T08:52:52;4.40;;;2.60;;
69126;SDS011;56688;50.234;19.292;2023-04-01T09:24:52;6.90;;;4.40;;
69126;SDS011;56688;50.234;19.292;2023-04-01T09:27:48;7.40;;;4.90;;
69126;SDS011;56688;50.234;19.292;2023-04-01T09:36:30;3.00;;;2.20;;
69126;SDS011;56688;50.234;19.292;2023-04-01T09:44:53;3.50;;;2.60;;
69126;SDS011;56688;50.234;19.292;2023-04-01T09:47:33;4.90;;;2.90;;
69126;SDS011;56688;50.234;19.292;2023-04-01T09:52:38;4.40;;;2.50;;
69126;SDS011;56688;50.234;19.292;2023-04-01T10:01:09;5.20;;;2.60;;
69126;SDS011;56688;50.234;19.292;2023-04-01T10:25:15;5.30;;;1.70;;
69126;SDS011;56688;50.234;19.292;2023-04-01T11:28:39;2.40;;;1.90;;
69126;SDS011;56688;50.234;19.292;2023-04-01T11:48:00;2.50;;;2.10;;
69126;SDS011;56688;50.234;19.292;2023-04-01T11:56:23;3.10;;;1.70;;
69126;SDS011;56688;50.234;19.292;2023-04-01T12:07:08;3.00;;;1.70;;
69126;SDS011;56688;50.234;19.292;2023-04-01T12:18:20;3.00;;;2.00;;
69126;SDS011;56688;50.234;19.292;2023-04-01T12:34:45;2.20;;;1.40;;
69126;SDS011;56688;50.234;19.292;2023-04-01T12:37:36;3.70;;;1.70;;
69126;SDS011;56688;50.234;19.292;2023-04-01T12:40:26;2.70;;;1.60;;
69126;SDS011;56688;50.234;19.292;2023-04-01T12:43:13;2.00;;;1.40;;
69126;SDS011;56688;50.234;19.292;2023-04-01T12:45:49;2.70;;;1.60;;
69126;SDS011;56688;50.234;19.292;2023-04-01T12:48:27;2.20;;;1.70;;
69126;SDS011;56688;50.234;19.292;2023-04-01T12:51:11;3.30;;;1.40;;
69126;SDS011;56688;50.234;19.292;2023-04-01T12:53:59;2.70;;;1.40;;
69126;SDS011;56688;50.234;19.292;2023-04-01T13:07:38;4.60;;;2.80;;
69126;SDS011;56688;50.234;19.292;2023-04-01T13:16:02;3.80;;;3.40;;
69126;SDS011;56688;50.234;19.292;2023-04-01T13:18:41;5.10;;;3.30;;
69126;SDS011;56688;50.234;19.292;2023-04-01T13:21:33;4.60;;;3.60;;
69126;SDS011;56688;50.234;19.292;2023-04-01T13:43:04;6.60;;;4.30;;
69126;SDS011;56688;50.234;19.292;2023-04-01T13:45:38;4.90;;;4.10;;
69126;SDS011;56688;50.234;19.292;2023-04-01T13:56:15;5.60;;;3.50;;
69126;SDS011;56688;50.234;19.292;2023-04-01T14:12:19;4.90;;;2.40;;
69126;SDS011;56688;50.234;19.292;2023-04-01T14:17:49;2.10;;;1.40;;
69126;SDS011;56688;50.234;19.292;2023-04-01T14:20:22;1.30;;;1.10;;
69126;SDS011;56688;50.234;19.292;2023-04-01T14:26:02;2.10;;;1.20;;
69126;SDS011;56688;50.234;19.292;2023-04-01T14:42:53;21.00;;;18.70;;
69126;SDS011;56688;50.234;19.292;2023-04-01T14:50:52;19.60;;;13.00;;
69126;SDS011;56688;50.234;19.292;2023-04-01T14:55:57;12.10;;;7.20;;
69126;SDS011;56688;50.234;19.292;2023-04-01T14:58:42;6.90;;;3.50;;
69126;SDS011;56688;50.234;19.292;2023-04-01T15:01:17;18.40;;;13.80;;
69126;SDS011;56688;50.234;19.292;2023-04-01T15:09:50;7.60;;;4.40;;
69126;SDS011;56688;50.234;19.292;2023-04-01T15:12:43;5.60;;;3.40;;
69126;SDS011;56688;50.234;19.292;2023-04-01T15:15:23;10.70;;;8.90;;
69126;SDS011;56688;50.234;19.292;2023-04-01T15:18:18;5.40;;;3.30;;
69126;SDS011;56688;50.234;19.292;2023-04-01T15:28:58;9.20;;;6.30;;
69126;SDS011;56688;50.234;19.292;2023-04-01T15:31:44;12.90;;;7.40;;
69126;SDS011;56688;50.234;19.292;2023-04-01T15:50:50;57.40;;;37.40;;
69126;SDS011;56688;50.234;19.292;2023-04-01T15:53:28;51.30;;;33.20;;
69126;SDS011;56688;50.234;19.292;2023-04-01T15:56:19;41.90;;;29.00;;
69126;SDS011;56688;50.234;19.292;2023-04-01T16:01:38;220.70;;;115.30;;
69126;SDS011;56688;50.234;19.292;2023-04-01T16:20:17;97.50;;;86.90;;
69126;SDS011;56688;50.234;19.292;2023-04-01T16:28:13;20.40;;;12.20;;
69126;SDS011;56688;50.234;19.292;2023-04-01T16:30:59;18.10;;;12.00;;
69126;SDS011;56688;50.234;19.292;2023-04-01T16:33:35;27.30;;;18.20;;
69126;SDS011;56688;50.234;19.292;2023-04-01T16:36:13;20.80;;;13.10;;
69126;SDS011;56688;50.234;19.292;2023-04-01T16:39:06;23.30;;;14.60;;
69126;SDS011;56688;50.234;19.292;2023-04-01T16:41:49;20.90;;;13.10;;
69126;SDS011;56688;50.234;19.292;2023-04-01T16:44:28;21.30;;;12.50;;
69126;SDS011;56688;50.234;19.292;2023-04-01T16:47:06;22.70;;;13.30;;
69126;SDS011;56688;50.234;19.292;2023-04-01T16:49:39;19.00;;;11.20;;
69126;SDS011;56688;50.234;19.292;2023-04-01T16:52:14;17.70;;;11.10;;
69126;SDS011;56688;50.234;19.292;2023-04-01T16:59:47;18.10;;;10.20;;
69126;SDS011;56688;50.234;19.292;2023-04-01T17:02:26;20.40;;;13.30;;
69126;SDS011;56688;50.234;19.292;2023-04-01T17:10:18;25.40;;;13.20;;
69126;SDS011;56688;50.234;19.292;2023-04-01T17:18:26;17.50;;;9.80;;
69126;SDS011;56688;50.234;19.292;2023-04-01T17:21:00;18.80;;;9.00;;
69126;SDS011;56688;50.234;19.292;2023-04-01T17:31:52;13.00;;;8.20;;
69126;SDS011;56688;50.234;19.292;2023-04-01T17:45:28;20.10;;;12.40;;
69126;SDS011;56688;50.234;19.292;2023-04-01T17:50:46;21.80;;;12.00;;
69126;SDS011;56688;50.234;19.292;2023-04-01T17:53:19;20.90;;;12.50;;
69126;SDS011;56688;50.234;19.292;2023-04-01T17:58:20;21.10;;;13.80;;
69126;SDS011;56688;50.234;19.292;2023-04-01T18:27:29;40.30;;;22.00;;
69126;SDS011;56688;50.234;19.292;2023-04-01T18:30:07;39.10;;;22.10;;
69126;SDS011;56688;50.234;19.292;2023-04-01T18:35:27;35.70;;;20.70;;
69126;SDS011;56688;50.234;19.292;2023-04-01T18:38:12;29.70;;;18.20;;
69126;SDS011;56688;50.234;19.292;2023-04-01T18:40:46;33.60;;;20.80;;
69126;SDS011;56688;50.234;19.292;2023-04-01T18:43:21;27.50;;;16.60;;
69126;SDS011;56688;50.234;19.292;2023-04-01T18:46:07;24.90;;;14.30;;
69126;SDS011;56688;50.234;19.292;2023-04-01T18:49:00;25.00;;;14.60;;
69126;SDS011;56688;50.234;19.292;2023-04-01T18:59:45;13.50;;;8.60;;
69126;SDS011;56688;50.234;19.292;2023-04-01T19:02:35;16.10;;;9.20;;
69126;SDS011;56688;50.234;19.292;2023-04-01T19:07:52;17.20;;;9.70;;
69126;SDS011;56688;50.234;19.292;2023-04-01T19:16:31;23.80;;;12.70;;
69126;SDS011;56688;50.234;19.292;2023-04-01T19:19:16;18.00;;;11.30;;
69126;SDS011;56688;50.234;19.292;2023-04-01T19:21:47;22.20;;;11.60;;
69126;SDS011;56688;50.234;19.292;2023-04-01T19:24:24;19.80;;;12.30;;
69126;SDS011;56688;50.234;19.292;2023-04-01T19:29:37;28.40;;;15.30;;
69126;SDS011;56688;50.234;19.292;2023-04-01T19:37:45;25.00;;;13.10;;
69126;SDS011;56688;50.234;19.292;2023-04-01T19:55:47;13.60;;;7.50;;
69126;SDS011;56688;50.234;19.292;2023-04-01T20:06:02;16.70;;;9.50;;
69126;SDS011;56688;50.234;19.292;2023-04-01T20:08:41;15.50;;;9.10;;
69126;SDS011;56688;50.234;19.292;2023-04-01T20:19:35;17.60;;;10.10;;
69126;SDS011;56688;50.234;19.292;2023-04-01T20:22:16;15.10;;;10.10;;
69126;SDS011;56688;50.234;19.292;2023-04-01T20:24:59;18.70;;;10.30;;
69126;SDS011;56688;50.234;19.292;2023-04-01T20:27:49;15.70;;;11.00;;
69126;SDS011;56688;50.234;19.292;2023-04-01T20:33:08;19.20;;;12.30;;
69126;SDS011;56688;50.234;19.292;2023-04-01T20:36:05;26.30;;;13.80;;
69126;SDS011;56688;50.234;19.292;2023-04-01T20:46:35;24.70;;;12.50;;
69126;SDS011;56688;50.234;19.292;2023-04-01T20:52:06;24.90;;;12.20;;
69126;SDS011;56688;50.234;19.292;2023-04-01T20:54:57;19.90;;;11.00;;
69126;SDS011;56688;50.234;19.292;2023-04-01T21:00:19;20.60;;;12.40;;
69126;SDS011;56688;50.234;19.292;2023-04-01T21:14:24;24.90;;;14.40;;
69126;SDS011;56688;50.234;19.292;2023-04-01T21:17:11;25.70;;;13.70;;
69126;SDS011;56688;50.234;19.292;2023-04-01T21:25:37;22.80;;;13.70;;
69126;SDS011;56688;50.234;19.292;2023-04-01T21:34:07;26.70;;;15.20;;
69126;SDS011;56688;50.234;19.292;2023-04-01T21:39:31;25.40;;;15.10;;
69126;SDS011;56688;50.234;19.292;2023-04-01T21:45:22;22.20;;;13.50;;
69126;SDS011;56688;50.234;19.292;2023-04-01T21:56:35;24.80;;;13.30;;
69126;SDS011;56688;50.234;19.292;2023-04-01T22:05:28;22.80;;;14.10;;
69126;SDS011;56688;50.234;19.292;2023-04-01T22:14:01;25.60;;;14.60;;
69126;SDS011;56688;50.234;19.292;2023-04-01T22:21:59;28.20;;;15.90;;
69126;SDS011;56688;50.234;19.292;2023-04-01T22:24:36;27.50;;;17.10;;
69126;SDS011;56688;50.234;19.292;2023-04-01T22:30:04;29.70;;;18.60;;
69126;SDS011;56688;50.234;19.292;2023-04-01T22:32:42;33.10;;;20.60;;
69126;SDS011;56688;50.234;19.292;2023-04-01T22:37:52;33.60;;;20.90;;
69126;SDS011;56688;50.234;19.292;2023-04-01T22:40:32;33.80;;;20.60;;
69126;SDS011;56688;50.234;19.292;2023-04-01T22:43:07;31.90;;;18.90;;
69126;SDS011;56688;50.234;19.292;2023-04-01T22:51:02;28.30;;;17.50;;
69126;SDS011;56688;50.234;19.292;2023-04-01T22:56:17;29.20;;;18.40;;
69126;SDS011;56688;50.234;19.292;2023-04-01T22:58:54;28.10;;;18.20;;
69126;SDS011;56688;50.234;19.292;2023-04-01T23:01:28;29.10;;;18.00;;
69126;SDS011;56688;50.234;19.292;2023-04-01T23:03:59;28.10;;;18.40;;
69126;SDS011;56688;50.234;19.292;2023-04-01T23:06:32;26.60;;;17.90;;
69126;SDS011;56688;50.234;19.292;2023-04-01T23:09:08;27.40;;;17.80;;
69126;SDS011;56688;50.234;19.292;2023-04-01T23:16:49;32.30;;;20.80;;
69126;SDS011;56688;50.234;19.292;2023-04-01T23:19:25;31.80;;;19.80;;
69126;SDS011;56688;50.234;19.292;2023-04-01T23:27:58;27.20;;;18.10;;
69126;SDS011;56688;50.234;19.292;2023-04-01T23:30:46;29.70;;;18.30;;
69126;SDS011;56688;50.234;19.292;2023-04-01T23:38:35;28.30;;;18.80;;
69126;SDS011;56688;50.234;19.292;2023-04-01T23:41:05;29.70;;;19.20;;
69126;SDS011;56688;50.234;19.292;2023-04-01T23:43:34;28.00;;;18.40;;
69126;SDS011;56688;50.234;19.292;2023-04-01T23:46:05;29.50;;;18.90;;
69126;SDS011;56688;50.234;19.292;2023-04-01T23:48:36;31.10;;;20.10;;
69126;SDS011;56688;50.234;19.292;2023-04-01T23:51:12;31.80;;;20.10;;
69126;SDS011;56688;50.234;19.292;2023-04-01T23:53:45;34.90;;;19.60;;
69126;SDS011;56688;50.234;19.292;2023-04-01T23:56:17;33.50;;;20.20;;
69126;SDS011;56688;50.234;19.292;2023-04-01T23:58:45;33.40;;;20.50;;
